Time;durP1;ratioP1;P1;durP2;ratioP2;P2;SDS_P1;SDS_P2;PMS_P1;PMS_P2;Temp;Humidity;BMP_temperature;BMP_pressure;BME280_temperature;BME280_humidity;BME280_pressure;Samples;Min_cycle;Max_cycle;Signal;HPM_P1;HPM_P2
2024/01/20 00:02:45;;;;;;;6.32;2.75;;;;;;;-0.66;100.00;102239.78;5021474;28;20037;-71
2024/01/20 00:05:31;;;;;;;7.07;2.55;;;;;;;-0.63;100.00;102244.19;5020159;28;20496;-71
2024/01/20 00:08:17;;;;;;;5.45;2.83;;;;;;;-0.60;100.00;102242.53;5020953;28;20400;-71
2024/01/20 00:11:02;;;;;;;9.30;3.00;;;;;;;-0.57;100.00;102244.34;5013623;28;20977;-71
2024/01/20 00:13:48;;;;;;;4.97;2.83;;;;;;;-0.54;100.00;102244.44;5017820;28;20137;-71
2024/01/20 00:16:34;;;;;;;6.13;2.75;;;;;;;-0.53;100.00;102248.78;5006317;28;20041;-70
2024/01/20 00:19:19;;;;;;;7.25;3.15;;;;;;;-0.53;100.00;102250.50;5017434;28;20048;-72
2024/01/20 00:22:05;;;;;;;5.25;2.83;;;;;;;-0.50;100.00;102250.59;5005091;28;20103;-71
2024/01/20 00:24:55;;;;;;;7.25;3.10;;;;;;;-0.49;100.00;102252.34;5019649;28;20044;-72
2024/01/20 00:27:41;;;;;;;9.02;3.25;;;;;;;-0.52;100.00;102253.13;5019503;28;20033;-71
2024/01/20 00:30:27;;;;;;;4.05;2.58;;;;;;;-0.52;100.00;102257.44;5003490;28;20049;-72
2024/01/20 00:33:13;;;;;;;10.00;3.30;;;;;;;-0.52;100.00;102252.25;5015863;28;20047;-72
2024/01/20 00:35:59;;;;;;;6.85;2.90;;;;;;;-0.50;100.00;102258.38;5004721;28;20060;-70
2024/01/20 00:38:45;;;;;;;7.05;2.95;;;;;;;-0.48;100.00;102254.94;5017583;28;21281;-71
2024/01/20 00:41:31;;;;;;;6.82;3.22;;;;;;;-0.44;100.00;102255.94;5019119;28;20069;-71
2024/01/20 00:44:16;;;;;;;6.03;2.97;;;;;;;-0.42;100.00;102255.09;5019081;28;20045;-71
2024/01/20 00:47:02;;;;;;;7.70;3.08;;;;;;;-0.38;100.00;102260.38;5016771;28;21911;-71
2024/01/20 00:49:48;;;;;;;6.13;2.88;;;;;;;-0.32;100.00;102247.53;5001957;28;20132;-71
2024/01/20 00:52:33;;;;;;;9.57;3.10;;;;;;;-0.32;100.00;102255.31;5014740;28;20075;-72
2024/01/20 00:55:19;;;;;;;7.22;3.45;;;;;;;-0.33;100.00;102263.97;5016465;28;22129;-70
2024/01/20 00:58:05;;;;;;;5.18;3.67;;;;;;;-0.33;100.00;102263.97;5014559;28;20055;-71
2024/01/20 01:00:51;;;;;;;7.78;3.63;;;;;;;-0.34;100.00;102257.88;5013816;28;20057;-71
2024/01/20 01:03:37;;;;;;;9.80;3.80;;;;;;;-0.33;100.00;102256.16;5012389;28;20144;-70
2024/01/20 01:06:23;;;;;;;8.90;4.00;;;;;;;-0.34;100.00;102257.00;5015145;28;20199;-71
2024/01/20 01:09:09;;;;;;;8.93;3.55;;;;;;;-0.37;100.00;102251.72;5015844;28;20037;-71
2024/01/20 01:11:54;;;;;;;5.78;3.50;;;;;;;-0.37;100.00;102262.13;5012219;28;20041;-70
2024/01/20 01:14:40;;;;;;;11.50;3.72;;;;;;;-0.38;100.00;102258.66;5026120;28;20492;-71
2024/01/20 01:17:26;;;;;;;6.07;2.97;;;;;;;-0.37;100.00;102260.44;5019146;28;20041;-70
2024/01/20 01:20:12;;;;;;;7.43;3.30;;;;;;;-0.35;100.00;102265.66;5002447;28;20055;-71
2024/01/20 01:22:57;;;;;;;9.45;3.50;;;;;;;-0.33;100.00;102263.97;5014436;28;20041;-70
2024/01/20 01:25:43;;;;;;;8.88;3.28;;;;;;;-0.31;100.00;102262.28;5014421;28;20049;-70
2024/01/20 01:28:29;;;;;;;6.15;2.80;;;;;;;-0.29;100.00;102271.00;5011281;28;20073;-70
2024/01/20 01:31:14;;;;;;;8.57;3.42;;;;;;;-0.28;100.00;102265.84;5014482;28;20184;-70
2024/01/20 01:34:01;;;;;;;6.82;2.72;;;;;;;-0.27;100.00;102269.34;5014517;28;20068;-70
2024/01/20 01:36:46;;;;;;;8.75;3.67;;;;;;;-0.26;100.00;102281.50;5013699;28;20045;-70
2024/01/20 01:39:32;;;;;;;10.13;2.75;;;;;;;-0.28;100.00;102276.25;5013199;28;20041;-70
2024/01/20 01:42:18;;;;;;;8.15;3.60;;;;;;;-0.26;100.00;102278.91;5014163;28;20489;-70
2024/01/20 01:45:04;;;;;;;5.13;2.72;;;;;;;-0.24;100.00;102285.00;5011889;28;20068;-71
2024/01/20 01:47:51;;;;;;;6.60;3.22;;;;;;;-0.25;100.00;102285.84;5014489;28;20029;-71
2024/01/20 01:50:37;;;;;;;10.57;3.20;;;;;;;-0.26;100.00;102284.09;5013545;28;20046;-70
2024/01/20 01:53:23;;;;;;;7.93;2.92;;;;;;;-0.28;100.00;102293.56;5013721;28;20048;-71
2024/01/20 01:56:09;;;;;;;7.72;3.20;;;;;;;-0.35;100.00;102296.88;5015260;28;20091;-71
2024/01/20 01:58:56;;;;;;;8.38;3.63;;;;;;;-0.46;100.00;102296.63;5014175;28;20676;-70
2024/01/20 02:01:41;;;;;;;5.60;3.80;;;;;;;-0.57;100.00;102296.38;5010883;28;20048;-70
2024/01/20 02:04:27;;;;;;;11.30;4.57;;;;;;;-0.67;100.00;102292.66;5014647;28;20329;-70
2024/01/20 02:07:15;;;;;;;12.35;4.18;;;;;;;-0.73;100.00;102296.00;5013555;28;20061;-71
2024/01/20 02:10:01;;;;;;;8.07;4.55;;;;;;;-0.77;100.00;102296.75;5014038;28;20037;-71
2024/01/20 02:12:47;;;;;;;7.88;3.45;;;;;;;-0.76;100.00;102292.44;5012254;28;20041;-71
2024/01/20 02:15:33;;;;;;;9.10;3.72;;;;;;;-0.76;100.00;102289.84;5015970;28;20029;-70
2024/01/20 02:18:21;;;;;;;8.43;3.72;;;;;;;-0.72;100.00;102300.38;5003384;28;20416;-73
2024/01/20 02:21:07;;;;;;;10.48;3.88;;;;;;;-0.67;100.00;102289.22;5015376;28;20040;-69
2024/01/20 02:23:53;;;;;;;8.05;3.38;;;;;;;-0.62;100.00;102298.88;5015806;28;20033;-71
2024/01/20 02:26:38;;;;;;;10.20;3.20;;;;;;;-0.59;100.00;102295.47;5013676;28;20519;-70
2024/01/20 02:29:24;;;;;;;14.25;3.63;;;;;;;-0.58;100.00;102290.31;5011411;28;20053;-71
2024/01/20 02:32:10;;;;;;;7.88;3.72;;;;;;;-0.56;100.00;102292.94;5015750;28;20045;-71
2024/01/20 02:34:56;;;;;;;10.63;3.70;;;;;;;-0.55;100.00;102292.09;5015065;28;20042;-71
2024/01/20 02:37:41;;;;;;;8.25;3.50;;;;;;;-0.53;100.00;102302.53;5016142;28;20041;-70
2024/01/20 02:40:27;;;;;;;13.35;4.45;;;;;;;-0.54;100.00;102301.66;5015712;28;20080;-70
2024/01/20 02:43:13;;;;;;;6.68;3.55;;;;;;;-0.53;100.00;102303.44;5016799;28;20047;-71
2024/01/20 02:45:59;;;;;;;9.63;3.92;;;;;;;-0.51;100.00;102312.13;5013053;28;20671;-70
2024/01/20 02:48:45;;;;;;;7.88;3.65;;;;;;;-0.47;100.00;102319.19;5015906;28;20041;-71
2024/01/20 02:51:31;;;;;;;8.50;4.20;;;;;;;-0.47;100.00;102311.38;5016131;28;20037;-70
2024/01/20 02:54:16;;;;;;;6.63;3.88;;;;;;;-0.47;100.00;102314.00;5012715;28;20045;-71
2024/01/20 02:57:02;;;;;;;6.93;3.80;;;;;;;-0.49;100.00;102320.00;5014621;28;22251;-70
2024/01/20 02:59:48;;;;;;;9.20;4.43;;;;;;;-0.53;100.00;102313.84;5014420;28;20063;-71
2024/01/20 03:02:34;;;;;;;11.88;5.13;;;;;;;-0.53;100.00;102320.75;5014676;28;20125;-70
2024/01/20 03:05:19;;;;;;;12.73;6.18;;;;;;;-0.57;100.00;102317.19;5016615;28;20047;-70
2024/01/20 03:08:05;;;;;;;13.10;7.82;;;;;;;-0.62;100.00;102318.78;5014555;28;20498;-70
2024/01/20 03:10:51;;;;;;;16.45;7.97;;;;;;;-0.71;100.00;102312.53;5014167;28;22088;-70
2024/01/20 03:13:36;;;;;;;13.73;8.60;;;;;;;-0.78;100.00;102317.53;5012419;28;20029;-71
2024/01/20 03:16:22;;;;;;;17.60;9.48;;;;;;;-0.84;100.00;102315.66;5016594;28;20033;-70
2024/01/20 03:19:08;;;;;;;17.00;9.00;;;;;;;-0.91;100.00;102321.53;5014848;28;20037;-70
2024/01/20 03:21:54;;;;;;;15.35;9.30;;;;;;;-0.96;100.00;102322.28;5011866;28;20045;-71
2024/01/20 03:24:40;;;;;;;20.63;9.73;;;;;;;-0.99;100.00;102322.22;4998901;28;20045;-71
2024/01/20 03:27:25;;;;;;;14.10;9.07;;;;;;;-0.99;100.00;102318.72;5011058;28;20048;-71
2024/01/20 03:30:11;;;;;;;17.15;8.82;;;;;;;-1.00;100.00;102319.56;5014622;28;20097;-70
2024/01/20 03:32:57;;;;;;;19.90;9.73;;;;;;;-1.01;100.00;102321.31;5027540;28;20041;-70
2024/01/20 03:35:43;;;;;;;17.58;8.95;;;;;;;-1.01;100.00;102326.50;5014372;28;22021;-71
2024/01/20 03:38:29;;;;;;;18.48;9.82;;;;;;;-1.01;100.00;102328.22;5014217;28;20044;-71
2024/01/20 03:41:15;;;;;;;15.98;9.23;;;;;;;-1.03;100.00;102322.97;5001106;28;20111;-71
2024/01/20 03:44:01;;;;;;;21.35;9.95;;;;;;;-1.05;100.00;102335.06;5017831;28;20103;-71
2024/01/20 03:46:47;;;;;;;16.13;10.18;;;;;;;-1.08;100.00;102341.91;5028084;28;20136;-71
2024/01/20 03:49:33;;;;;;;19.58;11.18;;;;;;;-1.12;100.00;102338.34;5012036;28;20040;-71
2024/01/20 03:52:18;;;;;;;21.50;11.65;;;;;;;-1.17;100.00;102335.63;4999685;28;20064;-71
2024/01/20 03:55:05;;;;;;;24.00;11.65;;;;;;;-1.18;100.00;102327.75;5014351;28;20170;-70
2024/01/20 03:57:51;;;;;;;24.00;12.40;;;;;;;-1.20;100.00;102337.25;5000026;28;20042;-70
2024/01/20 04:00:36;;;;;;;22.85;12.07;;;;;;;-1.23;100.00;102328.53;5012221;28;20036;-71
2024/01/20 04:03:22;;;;;;;20.58;12.85;;;;;;;-1.26;100.00;102331.03;5015556;28;20068;-71
2024/01/20 04:06:08;;;;;;;24.08;13.05;;;;;;;-1.26;100.00;102325.84;5013086;28;20038;-71
2024/01/20 04:08:54;;;;;;;21.85;12.35;;;;;;;-1.27;100.00;102328.38;5011933;28;21883;-71
2024/01/20 04:11:39;;;;;;;21.05;12.60;;;;;;;-1.30;100.00;102325.72;5011325;28;20504;-72
2024/01/20 04:14:25;;;;;;;24.05;12.55;;;;;;;-1.32;100.00;102330.00;5000488;28;20045;-70
2024/01/20 04:17:11;;;;;;;26.05;12.38;;;;;;;-1.33;100.00;102338.59;5002950;28;20049;-70
2024/01/20 04:19:57;;;;;;;22.02;12.27;;;;;;;-1.35;100.00;102338.59;5011610;28;20037;-71
2024/01/20 04:22:42;;;;;;;23.65;12.90;;;;;;;-1.35;100.00;102329.91;4995783;28;20037;-71
2024/01/20 04:25:29;;;;;;;32.05;14.73;;;;;;;-1.34;100.00;102342.94;5017118;28;20047;-71
2024/01/20 04:28:15;;;;;;;23.30;13.32;;;;;;;-1.34;100.00;102332.53;5019180;28;20049;-71
2024/01/20 04:31:00;;;;;;;23.90;13.57;;;;;;;-1.34;100.00;102340.34;5014187;28;20061;-71
2024/01/20 04:33:46;;;;;;;22.95;12.77;;;;;;;-1.34;100.00;102335.16;5016411;28;20113;-69
2024/01/20 04:36:32;;;;;;;27.02;12.88;;;;;;;-1.34;100.00;102340.34;5017157;28;20046;-69
2024/01/20 04:39:18;;;;;;;27.63;13.25;;;;;;;-1.35;100.00;102340.28;5011517;28;20030;-71
2024/01/20 04:42:04;;;;;;;24.75;13.13;;;;;;;-1.35;100.00;102341.19;5017780;28;20045;-70
2024/01/20 04:44:49;;;;;;;26.52;11.98;;;;;;;-1.35;100.00;102346.38;5018731;28;20171;-70
2024/01/20 04:47:35;;;;;;;23.00;13.27;;;;;;;-1.34;100.00;102350.75;5017283;28;20045;-72
2024/01/20 04:50:21;;;;;;;24.83;13.13;;;;;;;-1.34;100.00;102348.13;5016426;28;20045;-71
2024/01/20 04:53:06;;;;;;;27.60;13.73;;;;;;;-1.35;100.00;102342.88;5014593;28;20042;-71
2024/01/20 04:55:52;;;;;;;30.63;13.82;;;;;;;-1.37;100.00;102340.25;5016956;28;20770;-71
2024/01/20 04:58:38;;;;;;;25.73;13.77;;;;;;;-1.37;100.00;102346.31;5017120;28;22061;-71
2024/01/20 05:01:24;;;;;;;27.48;13.02;;;;;;;-1.38;100.00;102352.38;5013389;28;20077;-72
2024/01/20 05:04:09;;;;;;;30.00;13.15;;;;;;;-1.37;100.00;102348.03;5017618;28;20060;-71
2024/01/20 05:06:55;;;;;;;22.92;12.77;;;;;;;-1.37;100.00;102353.22;5015593;28;20044;-71
2024/01/20 05:09:41;;;;;;;31.55;13.60;;;;;;;-1.37;100.00;102355.84;5014991;28;20057;-71
2024/01/20 05:12:28;;;;;;;23.85;12.35;;;;;;;-1.38;100.00;102357.56;5016449;28;20037;-71
2024/01/20 05:15:13;;;;;;;29.60;12.93;;;;;;;-1.37;100.00;102359.31;5017908;28;20033;-72
2024/01/20 05:17:59;;;;;;;25.42;13.20;;;;;;;-1.37;100.00;102361.03;5017561;28;20038;-71
2024/01/20 05:20:45;;;;;;;27.67;13.55;;;;;;;-1.40;100.00;102360.97;5017797;28;20056;-71
2024/01/20 05:23:31;;;;;;;29.63;15.55;;;;;;;-1.42;100.00;102360.03;5015048;28;20369;-70
2024/01/20 05:26:16;;;;;;;27.40;14.13;;;;;;;-1.43;100.00;102358.25;5015209;28;20077;-71
2024/01/20 05:29:02;;;;;;;32.95;15.60;;;;;;;-1.47;100.00;102359.88;5014221;28;20850;-69
2024/01/20 05:31:48;;;;;;;30.05;14.60;;;;;;;-1.48;100.00;102365.06;5016660;28;20056;-72
2024/01/20 05:34:34;;;;;;;28.80;14.45;;;;;;;-1.49;100.00;102369.34;5014522;28;20069;-72
2024/01/20 05:37:19;;;;;;;33.60;15.60;;;;;;;-1.50;100.00;102362.41;5012794;28;20042;-71
2024/01/20 05:40:06;;;;;;;32.90;14.98;;;;;;;-1.52;100.00;102370.16;5015434;28;20551;-70
2024/01/20 05:42:51;;;;;;;28.75;14.27;;;;;;;-1.52;100.00;102367.53;5015216;28;20034;-71
2024/01/20 05:45:37;;;;;;;32.17;13.32;;;;;;;-1.49;100.00;102368.50;5016576;28;20045;-71
2024/01/20 05:48:23;;;;;;;30.60;14.52;;;;;;;-1.48;100.00;102367.66;5016588;28;20548;-71
2024/01/20 05:51:09;;;;;;;28.58;13.68;;;;;;;-1.45;100.00;102388.50;5015500;28;20075;-72
2024/01/20 05:53:54;;;;;;;31.25;16.10;;;;;;;-1.47;100.00;102387.59;5016555;28;20046;-71
2024/01/20 05:56:40;;;;;;;31.70;14.55;;;;;;;-1.51;100.00;102387.50;5016803;28;20045;-71
2024/01/20 05:59:26;;;;;;;33.60;15.48;;;;;;;-1.55;100.00;102380.47;5016378;28;20404;-71
2024/01/20 06:02:11;;;;;;;32.67;15.30;;;;;;;-1.59;100.00;102394.19;5017449;28;20068;-71
2024/01/20 06:04:57;;;;;;;37.03;16.23;;;;;;;-1.61;100.00;102387.16;5018590;28;20065;-72
2024/01/20 06:07:43;;;;;;;34.38;14.63;;;;;;;-1.65;100.00;102384.50;5017560;28;20381;-72
2024/01/20 06:10:28;;;;;;;31.20;13.50;;;;;;;-1.67;100.00;102388.78;5017628;28;20037;-72
2024/01/20 06:13:14;;;;;;;41.50;15.85;;;;;;;-1.66;100.00;102377.53;5016495;28;20045;-72
2024/01/20 06:16:00;;;;;;;30.98;15.50;;;;;;;-1.65;100.00;102386.19;5014625;28;20041;-70
2024/01/20 06:18:45;;;;;;;31.58;14.57;;;;;;;-1.64;100.00;102377.56;5016281;28;20461;-72
2024/01/20 06:21:31;;;;;;;34.50;15.02;;;;;;;-1.61;100.00;102385.47;4997586;28;20037;-72
2024/01/20 06:24:17;;;;;;;32.08;13.43;;;;;;;-1.60;100.00;102387.22;5022767;28;20037;-71
2024/01/20 06:27:03;;;;;;;33.10;14.05;;;;;;;-1.58;100.00;102395.06;5019787;28;20037;-71
2024/01/20 06:29:49;;;;;;;33.75;13.80;;;;;;;-1.59;100.00;102389.00;5013338;28;20135;-71
2024/01/20 06:32:34;;;;;;;36.83;14.88;;;;;;;-1.58;100.00;102395.94;5001154;28;20120;-72
2024/01/20 06:35:20;;;;;;;31.30;13.98;;;;;;;-1.58;100.00;102390.75;5003495;28;20037;-71
2024/01/20 06:38:06;;;;;;;34.35;13.93;;;;;;;-1.60;100.00;102402.81;4972593;28;20038;-72
2024/01/20 06:40:52;;;;;;;38.53;14.68;;;;;;;-1.59;100.00;102412.38;4983476;28;20046;-71
2024/01/20 06:43:37;;;;;;;37.10;14.13;;;;;;;-1.61;100.00;102414.03;4999847;28;20050;-72
2024/01/20 06:46:27;;;;;;;33.65;14.77;;;;;;;-1.64;100.00;102400.94;4997874;28;20042;-72
2024/01/20 06:49:12;;;;;;;38.78;14.93;;;;;;;-1.66;100.00;102410.41;4983506;28;20120;-70
2024/01/20 06:51:58;;;;;;;32.80;14.90;;;;;;;-1.70;100.00;102404.25;4981810;28;20103;-72
2024/01/20 06:54:44;;;;;;;45.70;15.88;;;;;;;-1.72;100.00;102405.03;4984056;28;20076;-71
2024/01/20 06:57:30;;;;;;;34.42;15.05;;;;;;;-1.71;100.00;102399.00;4982130;28;20064;-71
2024/01/20 07:00:16;;;;;;;39.05;16.35;;;;;;;-1.71;100.00;102409.38;4999137;28;20505;-72
2024/01/20 07:03:03;;;;;;;41.45;17.10;;;;;;;-1.69;100.00;102399.94;4983845;28;20057;-71
2024/01/20 07:05:48;;;;;;;34.22;14.27;;;;;;;-1.67;100.00;102406.06;4996092;28;20075;-72
2024/01/20 07:08:34;;;;;;;41.30;15.30;;;;;;;-1.65;100.00;102409.56;4996750;28;20042;-71
2024/01/20 07:11:20;;;;;;;39.05;14.88;;;;;;;-1.61;100.00;102416.63;4998422;28;20037;-71
2024/01/20 07:14:06;;;;;;;33.60;15.05;;;;;;;-1.60;100.00;102423.59;4998014;28;20071;-71
2024/01/20 07:16:52;;;;;;;37.25;15.40;;;;;;;-1.54;100.00;102417.69;4984391;28;20351;-72
2024/01/20 07:19:38;;;;;;;37.28;16.58;;;;;;;-1.51;100.00;102423.00;4996408;28;20644;-71
2024/01/20 07:22:24;;;;;;;39.83;16.42;;;;;;;-1.49;100.00;102430.84;4985079;28;20056;-71
2024/01/20 07:25:09;;;;;;;36.85;14.95;;;;;;;-1.46;100.00;102433.53;4985290;28;20045;-70
2024/01/20 07:27:55;;;;;;;40.17;17.10;;;;;;;-1.42;100.00;102438.00;5000414;28;20045;-72
2024/01/20 07:30:41;;;;;;;39.50;16.23;;;;;;;-1.41;100.00;102440.63;4995902;28;20200;-71
2024/01/20 07:33:27;;;;;;;36.58;15.05;;;;;;;-1.36;100.00;102440.78;5017013;28;20048;-71
2024/01/20 07:36:12;;;;;;;42.30;17.00;;;;;;;-1.35;100.00;102437.34;5016237;28;20037;-71
2024/01/20 07:38:58;;;;;;;43.05;16.48;;;;;;;-1.31;100.00;102439.16;5000720;28;20037;-71
2024/01/20 07:41:44;;;;;;;38.20;16.60;;;;;;;-1.30;100.00;102427.94;5015784;28;20048;-70
2024/01/20 07:44:30;;;;;;;37.38;15.80;;;;;;;-1.28;100.00;102439.28;5019221;28;20044;-71
2024/01/20 07:47:16;;;;;;;39.90;15.77;;;;;;;-1.24;100.00;102429.84;5014713;28;20034;-71
2024/01/20 07:50:02;;;;;;;37.42;16.80;;;;;;;-1.22;100.00;102441.16;5013042;28;20389;-71
2024/01/20 07:52:48;;;;;;;42.40;16.38;;;;;;;-1.17;100.00;102438.69;5000264;28;20040;-70
2024/01/20 07:55:33;;;;;;;39.45;16.25;;;;;;;-1.15;100.00;102444.84;5014834;28;20037;-70
2024/01/20 07:58:19;;;;;;;44.95;18.35;;;;;;;-1.13;100.00;102443.16;5015067;28;20152;-71
2024/01/20 08:01:05;;;;;;;39.33;16.48;;;;;;;-1.12;100.00;102431.91;5019299;28;20044;-70
2024/01/20 08:03:53;;;;;;;38.30;16.90;;;;;;;-1.12;100.00;102431.91;5020138;28;20037;-71
2024/01/20 08:06:38;;;;;;;45.28;17.88;;;;;;;-1.12;100.00;102432.81;5018098;28;20026;-70
2024/01/20 08:09:24;;;;;;;44.22;17.45;;;;;;;-1.08;100.00;102444.19;5019195;28;20128;-70
2024/01/20 08:12:10;;;;;;;40.75;16.67;;;;;;;-1.07;100.00;102439.84;5020889;28;20139;-70
2024/01/20 08:14:55;;;;;;;40.08;16.77;;;;;;;-1.07;100.00;102439.84;5002864;28;20044;-71
2024/01/20 08:17:41;;;;;;;36.88;15.93;;;;;;;-1.05;100.00;102446.84;5016183;28;20049;-71
2024/01/20 08:20:27;;;;;;;42.28;17.85;;;;;;;-1.03;100.00;102452.09;5016371;28;20052;-71
2024/01/20 08:23:13;;;;;;;38.13;16.67;;;;;;;-1.01;100.00;102451.31;5017954;28;20045;-70
2024/01/20 08:25:59;;;;;;;36.63;16.05;;;;;;;-0.99;100.00;102465.22;5015991;28;20038;-71
2024/01/20 08:28:45;;;;;;;45.30;17.00;;;;;;;-0.96;100.00;102467.03;5017207;28;21044;-70
2024/01/20 08:31:31;;;;;;;39.28;15.88;;;;;;;-0.92;100.00;102455.00;5016096;28;20139;-70
2024/01/20 08:34:17;;;;;;;41.72;16.10;;;;;;;-0.89;100.00;102461.19;5015238;28;20506;-69
2024/01/20 08:37:03;;;;;;;38.15;16.40;;;;;;;-0.84;100.00;102467.41;5013218;28;20045;-70
2024/01/20 08:39:49;;;;;;;36.85;15.38;;;;;;;-0.79;100.00;102472.72;5015711;28;20037;-71
2024/01/20 08:42:34;;;;;;;51.00;16.83;;;;;;;-0.75;100.00;102468.50;5011256;28;20160;-70
2024/01/20 08:45:20;;;;;;;39.95;17.08;;;;;;;-0.70;100.00;102472.09;5016606;28;20052;-71
2024/01/20 08:48:07;;;;;;;39.80;17.20;;;;;;;-0.66;100.00;102479.13;5015573;28;20063;-71
2024/01/20 08:50:52;;;;;;;36.65;16.13;;;;;;;-0.62;100.00;102486.19;5016649;28;20044;-70
2024/01/20 08:53:39;;;;;;;40.63;17.00;;;;;;;-0.58;100.00;102497.56;5017451;28;20037;-71
2024/01/20 08:56:25;;;;;;;36.95;16.77;;;;;;;-0.55;100.00;102489.84;5016744;28;20146;-71
2024/01/20 08:59:11;;;;;;;40.58;15.88;;;;;;;-0.52;100.00;102494.25;5014527;28;20036;-71
2024/01/20 09:01:56;;;;;;;36.85;15.43;;;;;;;-0.50;100.00;102501.25;5014962;28;20314;-71
2024/01/20 09:04:45;;;;;;;36.10;14.93;;;;;;;-0.48;100.00;102496.09;5017293;28;20868;-71
2024/01/20 09:07:31;;;;;;;36.00;15.15;;;;;;;-0.47;100.00;102501.34;5016918;28;20141;-70
2024/01/20 09:10:17;;;;;;;37.53;15.95;;;;;;;-0.47;100.00;102503.97;5015958;28;20055;-70
2024/01/20 09:13:03;;;;;;;34.10;15.55;;;;;;;-0.47;100.00;102503.06;5016119;28;20458;-71
2024/01/20 09:15:49;;;;;;;35.67;15.07;;;;;;;-0.47;100.00;102505.66;5017268;28;20046;-71
2024/01/20 09:18:35;;;;;;;30.88;13.63;;;;;;;-0.45;100.00;102514.38;5015734;28;20044;-71
2024/01/20 09:21:21;;;;;;;35.78;15.15;;;;;;;-0.44;100.00;102506.63;5004883;28;20504;-72
2024/01/20 09:24:07;;;;;;;33.45;14.82;;;;;;;-0.42;100.00;102510.16;5018948;28;20133;-72
2024/01/20 09:26:53;;;;;;;34.28;13.75;;;;;;;-0.40;100.00;102512.81;5020569;28;20068;-70
2024/01/20 09:29:38;;;;;;;36.78;13.48;;;;;;;-0.39;100.00;102514.56;5017248;28;20154;-72
2024/01/20 09:32:24;;;;;;;31.58;14.18;;;;;;;-0.36;100.00;102518.97;5019060;28;20041;-70
2024/01/20 09:35:10;;;;;;;29.65;12.85;;;;;;;-0.33;100.00;102513.88;5020134;28;20033;-71
2024/01/20 09:37:56;;;;;;;36.83;14.48;;;;;;;-0.30;100.00;102514.81;5020653;28;20049;-69
2024/01/20 09:40:41;;;;;;;28.98;12.57;;;;;;;-0.28;100.00;102512.25;5022100;28;20046;-70
2024/01/20 09:43:29;;;;;;;30.98;12.70;;;;;;;-0.25;100.00;102517.53;5021476;28;20041;-70
2024/01/20 09:46:15;;;;;;;33.38;13.80;;;;;;;-0.22;100.00;102528.03;5032639;28;20026;-70
2024/01/20 09:49:01;;;;;;;34.08;13.68;;;;;;;-0.20;100.00;102528.06;5020782;28;20035;-70
2024/01/20 09:51:53;;;;;;;39.72;14.18;;;;;;;-0.17;100.00;102515.13;5016490;28;20052;-71
2024/01/20 09:54:57;;;;;;;37.35;14.40;;;;;;;-0.13;100.00;102523.94;5002808;28;20111;-71
2024/01/20 09:57:45;;;;;;;31.08;13.20;;;;;;;-0.09;100.00;102520.53;5016874;28;20037;-71
2024/01/20 10:00:30;;;;;;;32.70;12.95;;;;;;;-0.06;100.00;102529.31;5017589;28;20052;-71
2024/01/20 10:03:17;;;;;;;33.38;12.75;;;;;;;-0.04;100.00;102531.97;5016967;28;20404;-71
2024/01/20 10:06:03;;;;;;;34.63;13.82;;;;;;;-0.02;100.00;102538.09;5019195;28;20041;-71
2024/01/20 10:08:49;;;;;;;31.63;13.48;;;;;;;-0.02;100.00;102525.06;5003281;28;20115;-70
2024/01/20 10:11:35;;;;;;;34.70;12.57;;;;;;;-0.02;100.00;102525.06;5014486;28;20397;-71
2024/01/20 10:14:21;;;;;;;33.45;13.32;;;;;;;-0.04;100.00;102535.44;5014128;28;20045;-71
2024/01/20 10:17:07;;;;;;;26.13;13.15;;;;;;;-0.05;100.00;102545.84;5016120;28;20068;-71
2024/01/20 10:19:54;;;;;;;37.42;12.07;;;;;;;-0.07;100.00;102555.31;5015779;28;20049;-69
2024/01/20 10:22:39;;;;;;;32.38;12.77;;;;;;;-0.09;100.00;102554.41;5014792;28;20063;-70
2024/01/20 10:25:25;;;;;;;30.33;11.95;;;;;;;-0.11;100.00;102561.28;5013003;28;20061;-70
2024/01/20 10:28:11;;;;;;;31.25;13.00;;;;;;;-0.13;100.00;102560.38;5013988;28;20037;-71
2024/01/20 10:30:56;;;;;;;28.98;12.73;;;;;;;-0.17;100.00;102557.69;5001399;28;20058;-71
2024/01/20 10:33:42;;;;;;;29.98;12.43;;;;;;;-0.20;100.00;102560.22;4996333;28;20048;-71
2024/01/20 10:36:28;;;;;;;31.52;12.75;;;;;;;-0.21;100.00;102555.81;4980337;28;20045;-71
2024/01/20 10:39:17;;;;;;;28.95;12.27;;;;;;;-0.21;100.00;102561.03;4994673;28;20037;-71
2024/01/20 10:42:05;;;;;;;28.23;12.88;;;;;;;-0.20;100.00;102557.63;4978282;28;20879;-70
2024/01/20 10:45:06;;;;;;;31.63;13.13;;;;;;;-0.20;100.00;102556.72;4996364;28;20065;-71
2024/01/20 10:47:57;;;;;;;34.05;13.70;;;;;;;-0.21;100.00;102566.22;4980976;28;20041;-71
2024/01/20 10:50:56;;;;;;;31.58;12.77;;;;;;;-0.20;100.00;102561.94;4995234;28;21805;-71
2024/01/20 10:53:42;;;;;;;30.52;13.65;;;;;;;-0.18;100.00;102565.44;4994224;28;20041;-71
2024/01/20 10:56:29;;;;;;;31.02;12.80;;;;;;;-0.19;100.00;102569.78;4993803;28;20042;-71
2024/01/20 10:59:17;;;;;;;31.80;12.70;;;;;;;-0.19;100.00;102569.78;4980923;28;20033;-71
2024/01/20 11:02:04;;;;;;;34.80;13.73;;;;;;;-0.18;100.00;102578.47;4978289;28;20033;-71
2024/01/20 11:04:50;;;;;;;36.42;14.95;;;;;;;-0.20;100.00;102577.53;4978441;28;20159;-71
2024/01/20 11:07:35;;;;;;;34.40;13.48;;;;;;;-0.18;100.00;102589.78;4996481;28;21263;-70
2024/01/20 11:10:24;;;;;;;27.88;12.55;;;;;;;-0.16;100.00;102589.81;4992400;28;20041;-71
2024/01/20 11:13:12;;;;;;;33.08;13.48;;;;;;;-0.15;100.00;102578.56;4968803;28;20113;-70
2024/01/20 11:15:58;;;;;;;33.78;15.88;;;;;;;-0.17;100.00;102578.50;4991245;28;20045;-71
2024/01/20 11:18:45;;;;;;;35.47;14.48;;;;;;;-0.16;100.00;102569.84;4990437;28;20042;-70
2024/01/20 11:21:31;;;;;;;35.35;14.63;;;;;;;-0.15;100.00;102576.81;4995039;28;20108;-71
2024/01/20 11:24:17;;;;;;;35.05;14.45;;;;;;;-0.13;100.00;102570.81;4980407;28;20127;-70
2024/01/20 11:27:04;;;;;;;33.75;14.65;;;;;;;-0.10;100.00;102578.69;4980671;28;20054;-71
2024/01/20 11:29:49;;;;;;;34.55;15.75;;;;;;;-0.08;100.00;102575.28;4983664;28;20151;-70
2024/01/20 11:32:36;;;;;;;36.38;15.60;;;;;;;-0.07;100.00;102579.66;5012687;28;20045;-70
2024/01/20 11:35:22;;;;;;;38.80;15.23;;;;;;;-0.06;100.00;102575.31;5013775;28;20567;-70
2024/01/20 11:38:08;;;;;;;40.45;15.40;;;;;;;-0.05;100.00;102577.09;5013372;28;20045;-70
2024/01/20 11:40:58;;;;;;;39.50;15.18;;;;;;;-0.05;100.00;102577.09;5010943;28;20048;-70
2024/01/20 11:43:47;;;;;;;40.38;16.35;;;;;;;-0.03;100.00;102576.28;5002121;28;20041;-70
2024/01/20 11:46:32;;;;;;;43.75;17.33;;;;;;;0.00;100.00;102575.50;5016534;28;20107;-71
2024/01/20 11:49:18;;;;;;;37.03;16.65;;;;;;;0.02;100.00;102578.13;5004724;28;20060;-71
2024/01/20 11:52:04;;;;;;;34.25;13.70;;;;;;;0.04;100.00;102582.53;5020826;28;20125;-70
2024/01/20 11:54:50;;;;;;;35.72;15.20;;;;;;;0.04;100.00;102579.94;5019881;28;20037;-69
2024/01/20 11:57:36;;;;;;;39.92;15.90;;;;;;;0.04;100.00;102587.75;5017945;28;20037;-70
2024/01/20 12:00:22;;;;;;;40.00;16.25;;;;;;;0.05;100.00;102581.69;5019960;28;20037;-70
2024/01/20 12:03:08;;;;;;;40.28;16.77;;;;;;;0.07;100.00;102574.81;5018671;28;20046;-70
2024/01/20 12:05:54;;;;;;;42.28;16.58;;;;;;;0.12;100.00;102574.94;5019450;28;20134;-70
2024/01/20 12:08:44;;;;;;;35.35;15.80;;;;;;;0.12;100.00;102565.38;5018510;28;20055;-70
2024/01/20 12:11:30;;;;;;;50.08;17.35;;;;;;;0.15;100.00;102568.91;5016482;28;20033;-69
2024/01/20 12:14:16;;;;;;;37.42;15.43;;;;;;;0.16;100.00;102565.47;5033953;28;20033;-70
2024/01/20 12:17:02;;;;;;;32.33;14.02;;;;;;;0.17;100.00;102560.31;5018786;28;20488;-70
2024/01/20 12:19:48;;;;;;;33.03;13.90;;;;;;;0.21;100.00;102561.25;5014309;28;20033;-70
2024/01/20 12:22:35;;;;;;;34.30;13.80;;;;;;;0.23;100.00;102552.63;5012886;28;20037;-70
2024/01/20 12:25:21;;;;;;;36.75;14.07;;;;;;;0.25;100.00;102544.84;5011902;28;20495;-70
2024/01/20 12:28:07;;;;;;;40.88;13.75;;;;;;;0.29;100.00;102551.91;5011939;28;20495;-70
2024/01/20 12:30:53;;;;;;;34.92;14.15;;;;;;;0.33;100.00;102539.84;5012336;28;20041;-70
2024/01/20 12:33:38;;;;;;;32.28;13.05;;;;;;;0.34;100.00;102545.09;5011431;28;20050;-71